KSUN/SUN METAR and TAF weather

Enter ICAO airport designator
Station Type Date Time Source
KSUN METAR 2021/05/15 23:50 UTC NOAA

KSUN 152350Z 30004KT 10SM SCT110 17/03 A2995


Station Type Date Time Source
KSUN Decoded METAR 2021/05/15 23:50 UTC NOAA

Hailey, Friedman Memorial Airport, ID, United States (KSUN) 43-30N 114-18W
May 15, 2021 - 07:50 PM EDT / 2021.05.15 2350 UTC
Wind: from the WNW (300 degrees) at 5 MPH (4 KT):0
Visibility: 10 mile(s):0
Sky conditions: partly cloudy
Temperature: 62 F (17 C)
Dew Point: 37 F (3 C)
Relative Humidity: 39%
Pressure (altimeter): 29.95 in. Hg (1014 hPa)
ob: KSUN 152350Z 30004KT 10SM SCT110 17/03 A2995
cycle: 0

Station Type Date Time Source
KSUN TAF 2021/05/15 18:36 UTC NOAA

TAF KSUN 151734Z 1518/1624 16008KT P6SM SCT060 SCT180
FM152200 18015KT P6SM VCTS BKN060CB BKN120 OVC180
TEMPO 1522/1524 VRB15G25KT P6SM -SHRA OVC060
FM160200 32008KT P6SM SCT120
FM160600 VRB05KT P6SM VCSH SCT070 SCT110
FM160800 32006KT P6SM SCT110
FM161900 15008KT P6SM SCT090 SCT150

Example: see airport list